Time;durP1;ratioP1;P1;durP2;ratioP2;P2;SDS_P1;SDS_P2;PMS_P1;PMS_P2;Temp;Humidity;BMP_temperature;BMP_pressure;BME280_temperature;BME280_humidity;BME280_pressure;Samples;Min_cycle;Max_cycle;Signal;HPM_P1;HPM_P2
2023/11/02 00:01:32;;;;;;;7.07;1.40;;;13.10;99.90;;;;;;5008318;28;20037;-71
2023/11/02 00:03:58;;;;;;;2.53;1.20;;;13.10;99.90;;;;;;5008965;28;20026;-70
2023/11/02 00:06:24;;;;;;;3.50;1.20;;;13.10;99.90;;;;;;5008876;28;20057;-70
2023/11/02 00:09:16;;;;;;;3.40;1.30;;;13.00;99.90;;;;;;5007542;28;20469;-70
2023/11/02 00:11:44;;;;;;;2.60;0.98;;;12.90;99.90;;;;;;5004459;28;20120;-70
2023/11/02 00:14:10;;;;;;;3.20;1.10;;;12.90;99.90;;;;;;5008552;28;20038;-70
2023/11/02 00:16:36;;;;;;;2.85;1.42;;;12.90;99.90;;;;;;5008720;28;20040;-70
2023/11/02 00:19:04;;;;;;;2.50;1.52;;;12.80;99.90;;;;;;5008420;28;20026;-70
2023/11/02 00:21:32;;;;;;;1.35;1.05;;;12.80;99.90;;;;;;5008547;28;20493;-70
2023/11/02 00:23:58;;;;;;;2.78;1.15;;;12.70;99.90;;;;;;5008565;28;20393;-69
2023/11/02 00:26:25;;;;;;;5.70;1.05;;;12.80;99.90;;;;;;5008324;28;20034;-69
2023/11/02 00:28:52;;;;;;;4.78;1.20;;;12.80;99.90;;;;;;5008255;28;20640;-69
2023/11/02 00:31:17;;;;;;;2.38;1.10;;;12.90;99.90;;;;;;5006295;28;20040;-69
2023/11/02 00:33:43;;;;;;;3.83;1.20;;;13.00;99.90;;;;;;5008232;28;20124;-69
2023/11/02 00:36:11;;;;;;;4.22;1.35;;;13.00;99.90;;;;;;5008608;28;20022;-69
2023/11/02 00:38:36;;;;;;;2.58;1.08;;;13.00;99.90;;;;;;5007218;28;20026;-69
2023/11/02 00:41:03;;;;;;;3.38;1.13;;;13.10;99.90;;;;;;5008510;28;20112;-69
2023/11/02 00:43:28;;;;;;;2.45;1.20;;;13.00;99.90;;;;;;5006599;28;20052;-69
2023/11/02 00:45:54;;;;;;;3.05;1.20;;;13.10;99.90;;;;;;5008292;28;20030;-69
2023/11/02 00:48:32;;;;;;;4.25;0.90;;;13.10;99.90;;;;;;5008290;28;20120;-69
2023/11/02 00:51:09;;;;;;;2.75;1.02;;;13.00;99.90;;;;;;5006824;28;20037;-70
2023/11/02 00:53:40;;;;;;;1.55;0.88;;;13.10;99.90;;;;;;4988397;28;20747;-69
2023/11/02 00:56:06;;;;;;;2.42;0.90;;;13.00;99.90;;;;;;5004648;28;20034;-70
2023/11/02 00:58:33;;;;;;;3.95;0.77;;;13.10;99.90;;;;;;5006486;28;20026;-70
2023/11/02 01:01:08;;;;;;;2.28;0.90;;;13.10;99.90;;;;;;5008088;28;20026;-69
2023/11/02 01:03:34;;;;;;;5.18;1.35;;;13.10;99.90;;;;;;5000322;28;20057;-70
2023/11/02 01:06:01;;;;;;;2.25;0.80;;;13.20;99.90;;;;;;5005159;28;20052;-70
2023/11/02 01:08:30;;;;;;;4.25;1.00;;;13.20;99.90;;;;;;5006327;28;20053;-69
2023/11/02 01:10:55;;;;;;;1.95;1.02;;;13.20;99.90;;;;;;5006183;28;20038;-69
2023/11/02 01:13:21;;;;;;;8.80;0.93;;;13.20;99.90;;;;;;5005828;28;20044;-70
2023/11/02 01:16:23;;;;;;;2.25;1.10;;;13.20;99.90;;;;;;5006173;28;20108;-70
2023/11/02 01:18:49;;;;;;;4.22;0.85;;;13.20;99.90;;;;;;4996864;28;20033;-70
2023/11/02 01:21:15;;;;;;;5.13;1.33;;;13.30;99.90;;;;;;5000436;28;20042;-70
2023/11/02 01:23:42;;;;;;;3.35;1.10;;;13.20;99.90;;;;;;5006210;28;20030;-69
2023/11/02 01:26:43;;;;;;;3.03;1.23;;;13.20;99.90;;;;;;5007568;28;20076;-69
2023/11/02 01:29:10;;;;;;;1.17;0.80;;;13.20;99.90;;;;;;5007260;28;20076;-69
2023/11/02 01:31:36;;;;;;;3.08;0.85;;;13.20;99.90;;;;;;5007575;28;20061;-69
2023/11/02 01:34:03;;;;;;;5.82;1.10;;;13.20;99.90;;;;;;5005811;28;20030;-69
2023/11/02 01:36:38;;;;;;;3.55;1.00;;;13.20;99.90;;;;;;5007177;28;20541;-70
2023/11/02 01:39:09;;;;;;;2.70;1.10;;;13.30;99.90;;;;;;5005665;28;20026;-70
2023/11/02 01:41:44;;;;;;;2.28;0.98;;;13.30;99.90;;;;;;5005740;28;20029;-69
2023/11/02 01:44:19;;;;;;;1.70;1.00;;;13.30;99.90;;;;;;5038827;28;20050;-70
2023/11/02 01:46:49;;;;;;;3.03;1.00;;;13.30;99.90;;;;;;5006986;28;20033;-69
2023/11/02 01:49:35;;;;;;;2.33;1.00;;;13.40;99.90;;;;;;5006968;28;20461;-69
2023/11/02 01:52:20;;;;;;;1.48;0.80;;;13.40;99.90;;;;;;5005362;28;20042;-69
2023/11/02 01:54:55;;;;;;;2.80;1.00;;;13.30;99.90;;;;;;5000269;28;20076;-68
2023/11/02 01:57:35;;;;;;;0.85;0.77;;;13.30;99.90;;;;;;5006644;28;20034;-69
2023/11/02 02:00:05;;;;;;;2.75;0.80;;;13.20;99.90;;;;;;5005253;28;20224;-70
2023/11/02 02:02:46;;;;;;;2.13;0.70;;;13.20;99.90;;;;;;5006461;28;20113;-69
2023/11/02 02:05:29;;;;;;;2.90;1.27;;;13.20;99.90;;;;;;5005062;28;20050;-69
2023/11/02 02:08:03;;;;;;;2.28;0.85;;;13.10;99.90;;;;;;5005096;28;20071;-69
2023/11/02 02:10:38;;;;;;;1.30;0.80;;;13.10;99.90;;;;;;5006635;28;20084;-69
2023/11/02 02:13:16;;;;;;;3.53;1.10;;;13.00;99.90;;;;;;5005026;28;20065;-69
2023/11/02 02:16:09;;;;;;;1.88;0.80;;;13.00;99.90;;;;;;4999671;28;20026;-69
2023/11/02 02:19:00;;;;;;;4.38;0.98;;;12.90;99.90;;;;;;4997210;28;20033;-69
2023/11/02 02:21:37;;;;;;;4.35;1.30;;;12.90;99.90;;;;;;5004857;28;20041;-69
2023/11/02 02:24:16;;;;;;;4.25;0.98;;;12.90;99.90;;;;;;5006224;28;20723;-69
2023/11/02 02:27:12;;;;;;;1.55;0.80;;;12.90;99.90;;;;;;4998228;28;20056;-69
2023/11/02 02:30:14;;;;;;;1.92;0.77;;;12.90;99.90;;;;;;5004780;28;20034;-70
2023/11/02 02:33:17;;;;;;;1.33;0.70;;;13.00;99.90;;;;;;5042716;28;20134;-70
2023/11/02 02:35:56;;;;;;;2.70;1.02;;;13.00;99.90;;;;;;4999349;28;20022;-69
2023/11/02 02:38:33;;;;;;;1.90;0.77;;;13.00;99.90;;;;;;5004669;28;20108;-69
2023/11/02 02:41:07;;;;;;;3.10;0.88;;;13.00;99.90;;;;;;5004622;28;20508;-69
2023/11/02 02:43:34;;;;;;;1.90;0.95;;;13.00;99.90;;;;;;5004381;28;20040;-69
2023/11/02 02:46:03;;;;;;;1.30;0.75;;;13.00;99.90;;;;;;5004358;28;20077;-69
2023/11/02 02:48:30;;;;;;;1.13;0.68;;;13.00;99.90;;;;;;5005843;28;20034;-69
2023/11/02 02:51:03;;;;;;;0.77;0.70;;;12.90;99.90;;;;;;5005682;28;20766;-69
2023/11/02 02:53:32;;;;;;;1.17;0.52;;;12.90;99.90;;;;;;5005489;28;20041;-69
2023/11/02 02:56:09;;;;;;;3.25;0.65;;;12.90;99.90;;;;;;5004779;28;20041;-69
2023/11/02 02:58:54;;;;;;;1.55;0.88;;;12.90;99.90;;;;;;4998540;28;20133;-69
2023/11/02 03:01:24;;;;;;;10.52;1.23;;;12.80;99.90;;;;;;5004357;28;20030;-69
2023/11/02 03:03:49;;;;;;;0.90;0.60;;;12.80;99.90;;;;;;5004564;28;20042;-69
2023/11/02 03:06:17;;;;;;;2.78;0.73;;;12.80;99.90;;;;;;5005637;28;20441;-69
2023/11/02 03:08:45;;;;;;;0.85;0.63;;;12.80;99.90;;;;;;5004280;28;20037;-69
2023/11/02 03:11:13;;;;;;;1.00;0.80;;;12.70;99.90;;;;;;5005559;28;20034;-69
2023/11/02 03:13:42;;;;;;;3.65;1.05;;;12.60;99.90;;;;;;5004081;28;20048;-69
2023/11/02 03:16:13;;;;;;;2.97;0.82;;;12.60;99.90;;;;;;5005847;28;20080;-69
2023/11/02 03:18:40;;;;;;;1.90;0.60;;;12.60;99.90;;;;;;4996805;28;20030;-69
2023/11/02 03:21:06;;;;;;;1.67;0.85;;;12.60;99.90;;;;;;5005210;28;20034;-69
2023/11/02 03:23:45;;;;;;;2.65;0.70;;;12.50;99.90;;;;;;5003580;28;20116;-69
2023/11/02 03:26:29;;;;;;;2.35;0.90;;;12.50;99.90;;;;;;5003884;28;20046;-69
2023/11/02 03:29:01;;;;;;;4.07;0.85;;;12.40;99.90;;;;;;5004489;28;20045;-69
2023/11/02 03:31:44;;;;;;;2.20;0.90;;;12.40;99.90;;;;;;5005241;28;20045;-69
2023/11/02 03:34:34;;;;;;;2.35;0.80;;;12.30;99.90;;;;;;5003834;28;20779;-70
2023/11/02 03:37:12;;;;;;;1.90;0.80;;;12.40;99.90;;;;;;5000794;28;20415;-69
2023/11/02 03:40:02;;;;;;;2.03;0.75;;;12.30;99.90;;;;;;4998100;28;20026;-69
2023/11/02 03:42:56;;;;;;;2.70;0.80;;;12.20;99.90;;;;;;5005658;28;20044;-70
2023/11/02 03:45:31;;;;;;;2.45;0.70;;;12.10;99.90;;;;;;5003775;28;20030;-69
2023/11/02 03:48:09;;;;;;;1.58;0.68;;;12.10;99.90;;;;;;5005337;28;20096;-69
2023/11/02 03:50:46;;;;;;;2.45;0.80;;;12.10;99.90;;;;;;5005207;28;20041;-70
2023/11/02 03:53:31;;;;;;;2.50;0.88;;;12.00;99.90;;;;;;5004459;28;20144;-69
2023/11/02 03:56:29;;;;;;;4.20;0.70;;;12.00;99.90;;;;;;5005222;28;20037;-69
2023/11/02 03:59:10;;;;;;;3.30;0.80;;;11.90;99.90;;;;;;4985422;28;20039;-69
2023/11/02 04:01:51;;;;;;;2.65;0.93;;;11.90;99.90;;;;;;4997374;28;20042;-68
2023/11/02 04:04:29;;;;;;;1.88;0.70;;;11.90;99.90;;;;;;5004989;28;20049;-69
2023/11/02 04:07:00;;;;;;;2.38;0.75;;;11.80;99.90;;;;;;5005326;28;20030;-69
2023/11/02 04:09:34;;;;;;;0.88;0.70;;;11.80;99.90;;;;;;5004955;28;20026;-69
2023/11/02 04:12:27;;;;;;;1.30;0.80;;;11.80;99.90;;;;;;5005324;28;20041;-69
2023/11/02 04:14:56;;;;;;;2.58;0.80;;;11.70;99.90;;;;;;5006329;28;20076;-69
2023/11/02 04:17:22;;;;;;;1.75;0.80;;;11.70;99.90;;;;;;5004999;28;20029;-68
2023/11/02 04:19:48;;;;;;;2.80;0.85;;;11.70;99.90;;;;;;5003724;28;20409;-69
2023/11/02 04:22:14;;;;;;;2.85;0.70;;;11.70;99.90;;;;;;5004955;28;20480;-69
2023/11/02 04:24:43;;;;;;;0.80;0.60;;;11.70;99.90;;;;;;5004941;28;20945;-69
2023/11/02 04:27:09;;;;;;;1.48;0.80;;;11.70;99.90;;;;;;4998432;28;20050;-69
2023/11/02 04:29:36;;;;;;;3.50;0.80;;;11.60;99.90;;;;;;4996949;28;20100;-69
2023/11/02 04:32:02;;;;;;;4.80;0.77;;;11.60;99.90;;;;;;5005010;28;20038;-68
2023/11/02 04:34:27;;;;;;;3.75;0.98;;;11.60;99.90;;;;;;5004861;28;20461;-68
2023/11/02 04:36:53;;;;;;;6.53;0.57;;;11.60;99.90;;;;;;5004592;28;20030;-69
2023/11/02 04:39:21;;;;;;;1.35;1.00;;;11.60;99.90;;;;;;5005868;28;20044;-69
2023/11/02 04:41:47;;;;;;;3.28;0.70;;;11.50;99.90;;;;;;5008377;28;20080;-69
2023/11/02 04:44:13;;;;;;;2.40;0.75;;;11.50;99.90;;;;;;5008494;28;20434;-69
2023/11/02 04:46:40;;;;;;;1.27;0.65;;;11.50;99.90;;;;;;5008263;28;20025;-69
2023/11/02 04:49:06;;;;;;;1.25;0.70;;;11.50;99.90;;;;;;5008160;28;20033;-69
2023/11/02 04:51:32;;;;;;;2.88;1.00;;;11.40;99.90;;;;;;5008081;28;20045;-69
2023/11/02 04:53:57;;;;;;;1.88;0.60;;;11.40;99.90;;;;;;5007639;28;20506;-69
2023/11/02 04:56:23;;;;;;;1.92;0.60;;;11.40;99.90;;;;;;5007732;28;20116;-69
2023/11/02 04:58:49;;;;;;;1.42;0.82;;;11.40;99.90;;;;;;5003755;28;20030;-69
2023/11/02 05:01:15;;;;;;;1.67;0.90;;;11.40;99.90;;;;;;4999168;28;20033;-68
2023/11/02 05:03:41;;;;;;;0.90;0.70;;;11.40;99.90;;;;;;5007826;28;20875;-65
2023/11/02 05:06:07;;;;;;;1.65;0.80;;;11.40;99.90;;;;;;5005163;28;20133;-68
2023/11/02 05:08:35;;;;;;;1.08;0.80;;;11.40;99.90;;;;;;5000813;28;20116;-69
2023/11/02 05:11:01;;;;;;;1.70;0.80;;;11.40;99.90;;;;;;5008179;28;20095;-69
2023/11/02 05:13:27;;;;;;;0.90;0.50;;;11.40;99.90;;;;;;5007504;28;20137;-69
2023/11/02 05:15:57;;;;;;;0.70;0.50;;;11.40;99.90;;;;;;5008037;28;20117;-69
2023/11/02 05:18:23;;;;;;;2.35;0.70;;;11.40;99.90;;;;;;5007887;28;20041;-69
2023/11/02 05:20:56;;;;;;;0.93;0.75;;;11.40;99.90;;;;;;5007658;28;20443;-69
2023/11/02 05:23:23;;;;;;;3.65;0.90;;;11.30;99.90;;;;;;5038801;28;20068;-70
2023/11/02 05:25:48;;;;;;;3.67;0.70;;;11.30;99.90;;;;;;5007670;28;20406;-69
2023/11/02 05:28:14;;;;;;;1.73;0.80;;;11.30;99.90;;;;;;5007714;28;20034;-69
2023/11/02 05:30:41;;;;;;;2.38;0.75;;;11.20;99.90;;;;;;5007233;28;20103;-69
2023/11/02 05:33:06;;;;;;;1.33;0.60;;;11.20;99.90;;;;;;5007552;28;20049;-69
2023/11/02 05:35:33;;;;;;;2.72;0.95;;;11.10;99.90;;;;;;5006888;28;20025;-69
2023/11/02 05:37:59;;;;;;;1.88;0.52;;;11.10;99.90;;;;;;5006599;28;20042;-68
2023/11/02 05:40:24;;;;;;;1.23;0.60;;;11.10;99.90;;;;;;5003389;28;20073;-69
2023/11/02 05:42:50;;;;;;;1.38;0.93;;;11.10;99.90;;;;;;5005970;28;20041;-69
2023/11/02 05:45:16;;;;;;;1.30;0.60;;;11.10;99.90;;;;;;5005987;28;20038;-70
2023/11/02 05:47:42;;;;;;;3.45;1.27;;;11.10;99.90;;;;;;5021092;28;20052;-67
2023/11/02 05:50:08;;;;;;;1.48;0.70;;;11.10;99.90;;;;;;5006167;28;20040;-68
2023/11/02 05:52:34;;;;;;;6.20;1.08;;;11.10;99.90;;;;;;5005870;28;20544;-69
2023/11/02 05:54:59;;;;;;;2.05;0.80;;;11.10;99.90;;;;;;5007311;28;20034;-69
2023/11/02 05:57:25;;;;;;;1.55;0.60;;;11.00;99.90;;;;;;5007003;28;20029;-69
2023/11/02 05:59:51;;;;;;;1.05;0.80;;;11.00;99.90;;;;;;5006276;28;20216;-69
2023/11/02 06:02:17;;;;;;;5.68;0.73;;;11.00;99.90;;;;;;5006740;28;20084;-69
2023/11/02 06:04:42;;;;;;;2.08;0.80;;;11.00;99.90;;;;;;5007024;28;20045;-69
2023/11/02 06:07:08;;;;;;;2.50;0.90;;;11.00;99.90;;;;;;5006811;28;20080;-69
2023/11/02 06:09:34;;;;;;;3.55;0.95;;;10.90;99.90;;;;;;5006686;28;20041;-69
2023/11/02 06:12:00;;;;;;;0.95;0.70;;;11.00;99.90;;;;;;5006019;28;20044;-69
2023/11/02 06:14:25;;;;;;;1.45;0.70;;;11.00;99.90;;;;;;5006238;28;20045;-66
2023/11/02 06:16:51;;;;;;;2.22;1.02;;;10.90;99.90;;;;;;5006609;28;20034;-68
2023/11/02 06:19:17;;;;;;;4.03;1.20;;;11.00;99.90;;;;;;5006260;28;20039;-67
2023/11/02 06:21:43;;;;;;;1.30;0.70;;;11.00;99.90;;;;;;5006295;28;20671;-69
2023/11/02 06:24:08;;;;;;;2.05;0.68;;;11.00;99.90;;;;;;5005890;28;20037;-69
2023/11/02 06:26:34;;;;;;;2.45;0.80;;;11.00;99.90;;;;;;5006371;28;20022;-69
2023/11/02 06:29:00;;;;;;;2.70;0.65;;;11.00;99.90;;;;;;5006169;28;20137;-70
2023/11/02 06:31:25;;;;;;;2.42;0.90;;;11.10;99.90;;;;;;5012699;28;20062;-67
2023/11/02 06:33:51;;;;;;;1.95;1.08;;;11.00;99.90;;;;;;4993036;28;20033;-66
2023/11/02 06:36:17;;;;;;;3.63;0.95;;;11.10;99.90;;;;;;4998235;28;20053;-69
2023/11/02 06:38:43;;;;;;;2.97;0.80;;;11.10;99.90;;;;;;5006307;28;20025;-68
2023/11/02 06:41:08;;;;;;;3.13;0.95;;;11.10;99.90;;;;;;5005896;28;20040;-69
2023/11/02 06:43:34;;;;;;;1.17;0.70;;;11.10;99.90;;;;;;5005645;28;20053;-69
2023/11/02 06:46:00;;;;;;;3.42;0.90;;;11.10;99.90;;;;;;5005967;28;20033;-70
2023/11/02 06:48:26;;;;;;;3.95;0.88;;;11.10;99.90;;;;;;5005795;28;20065;-69
2023/11/02 06:50:52;;;;;;;3.03;1.33;;;11.20;99.90;;;;;;5005682;28;20065;-69
2023/11/02 06:53:18;;;;;;;2.42;0.85;;;11.20;99.90;;;;;;5003982;28;20517;-68
2023/11/02 06:55:43;;;;;;;4.07;1.27;;;11.20;99.90;;;;;;5006044;28;20033;-69
2023/11/02 06:58:09;;;;;;;2.58;1.38;;;11.30;99.90;;;;;;5001705;28;20115;-69
2023/11/02 07:00:35;;;;;;;6.55;1.13;;;11.20;99.90;;;;;;5005737;28;20772;-69
2023/11/02 07:03:01;;;;;;;5.82;1.20;;;11.20;99.90;;;;;;5005180;28;20139;-69
2023/11/02 07:05:26;;;;;;;7.00;1.52;;;11.20;99.90;;;;;;5005173;28;20331;-69
2023/11/02 07:07:54;;;;;;;1.85;1.02;;;11.20;99.90;;;;;;5005474;28;20038;-70
2023/11/02 07:10:20;;;;;;;4.50;1.33;;;11.20;99.90;;;;;;5004291;28;20152;-69
2023/11/02 07:12:46;;;;;;;1.85;1.25;;;11.30;99.90;;;;;;5004827;28;20045;-68
2023/11/02 07:15:13;;;;;;;5.47;1.90;;;11.30;99.90;;;;;;5005441;28;20041;-69
2023/11/02 07:17:39;;;;;;;2.30;1.42;;;11.30;99.90;;;;;;5005451;28;20033;-69
2023/11/02 07:20:06;;;;;;;1.65;1.45;;;11.30;99.90;;;;;;5005684;28;20044;-69
2023/11/02 07:22:31;;;;;;;4.00;1.80;;;11.30;99.90;;;;;;5004381;28;20717;-69
2023/11/02 07:24:57;;;;;;;3.20;1.55;;;11.50;99.90;;;;;;5005522;28;20116;-69
2023/11/02 07:27:23;;;;;;;4.35;1.88;;;11.50;99.90;;;;;;5005179;28;20045;-69
2023/11/02 07:29:49;;;;;;;3.72;1.58;;;11.50;99.90;;;;;;5005315;28;20117;-69
2023/11/02 07:32:15;;;;;;;2.75;1.70;;;11.60;99.90;;;;;;5005083;28;20037;-69
2023/11/02 07:34:41;;;;;;;4.22;2.20;;;11.70;99.90;;;;;;5004984;28;20067;-68
2023/11/02 07:37:06;;;;;;;3.83;1.90;;;11.70;99.90;;;;;;5005466;28;20029;-69
2023/11/02 07:39:33;;;;;;;7.53;2.22;;;11.70;99.90;;;;;;5005170;28;20036;-69
2023/11/02 07:42:00;;;;;;;4.53;2.13;;;11.80;99.90;;;;;;5004636;28;20446;-69
2023/11/02 07:44:26;;;;;;;4.80;2.35;;;11.80;99.90;;;;;;5002469;28;20052;-69
2023/11/02 07:46:51;;;;;;;6.40;2.35;;;11.80;99.90;;;;;;5005239;28;20076;-69
2023/11/02 07:49:17;;;;;;;4.55;2.13;;;11.90;99.90;;;;;;5004283;28;20768;-69
2023/11/02 07:51:43;;;;;;;5.03;1.77;;;12.00;99.90;;;;;;5005269;28;20081;-69
2023/11/02 07:54:09;;;;;;;2.67;1.77;;;12.00;99.90;;;;;;5004631;28;20126;-68
2023/11/02 07:56:36;;;;;;;6.78;1.90;;;11.90;99.90;;;;;;5003167;28;20040;-69
2023/11/02 07:59:02;;;;;;;4.13;1.88;;;12.00;99.90;;;;;;5004929;28;20045;-69
2023/11/02 08:01:29;;;;;;;5.57;1.85;;;12.10;99.90;;;;;;5003212;28;20084;-69
2023/11/02 08:03:54;;;;;;;4.20;1.90;;;12.20;99.90;;;;;;5004991;28;20030;-69
2023/11/02 08:06:20;;;;;;;4.50;1.85;;;12.30;99.90;;;;;;5004818;28;20040;-70
2023/11/02 08:08:46;;;;;;;3.75;2.03;;;12.30;99.90;;;;;;5004597;28;20033;-69
2023/11/02 08:11:12;;;;;;;3.47;1.40;;;12.40;99.90;;;;;;5004762;28;20038;-68
2023/11/02 08:13:38;;;;;;;5.18;2.40;;;12.50;99.90;;;;;;5004194;28;20080;-69
2023/11/02 08:16:04;;;;;;;4.63;2.63;;;12.50;99.90;;;;;;5008659;28;20068;-69
2023/11/02 08:18:30;;;;;;;6.03;2.03;;;12.60;99.90;;;;;;5008771;28;20041;-69
2023/11/02 08:20:56;;;;;;;7.50;1.95;;;12.60;99.90;;;;;;5006953;28;20033;-69
2023/11/02 08:23:21;;;;;;;1.92;1.67;;;12.70;99.90;;;;;;5008282;28;20585;-69
2023/11/02 08:25:48;;;;;;;3.88;1.70;;;12.70;99.90;;;;;;5003151;28;20033;-69
2023/11/02 08:28:15;;;;;;;2.72;1.77;;;12.70;99.90;;;;;;5008394;28;20516;-69
2023/11/02 08:30:41;;;;;;;3.60;1.80;;;12.80;99.90;;;;;;5008163;28;20068;-69
2023/11/02 08:33:08;;;;;;;4.25;2.00;;;12.80;99.90;;;;;;5008348;28;20045;-69
2023/11/02 08:35:34;;;;;;;6.88;1.92;;;12.80;99.90;;;;;;5008188;28;20026;-69
2023/11/02 08:38:00;;;;;;;3.13;1.70;;;12.90;99.90;;;;;;5008154;28;20036;-69
2023/11/02 08:40:26;;;;;;;3.92;1.48;;;12.80;99.90;;;;;;5008003;28;20057;-68
2023/11/02 08:42:52;;;;;;;8.85;1.80;;;12.90;99.90;;;;;;5001104;28;20058;-69
2023/11/02 08:45:17;;;;;;;4.68;1.25;;;12.90;99.90;;;;;;5008643;28;20128;-69
2023/11/02 08:47:44;;;;;;;3.90;1.38;;;12.90;99.90;;;;;;5006086;28;20116;-69
2023/11/02 08:50:11;;;;;;;3.53;1.52;;;12.90;99.90;;;;;;5008629;28;20092;-68
2023/11/02 08:52:38;;;;;;;3.17;1.48;;;13.00;99.90;;;;;;5000185;28;20042;-69
2023/11/02 08:55:04;;;;;;;3.58;1.40;;;13.10;99.90;;;;;;5007797;28;20498;-69
2023/11/02 08:57:30;;;;;;;2.25;1.45;;;13.10;99.90;;;;;;5007582;28;20033;-69
2023/11/02 09:00:00;;;;;;;6.10;1.55;;;13.20;99.90;;;;;;5005954;28;20037;-69
2023/11/02 09:02:26;;;;;;;1.73;1.52;;;13.20;99.90;;;;;;5007607;28;20041;-69
2023/11/02 09:04:55;;;;;;;4.20;1.60;;;13.20;99.90;;;;;;5011808;28;20124;-69
2023/11/02 09:07:21;;;;;;;2.28;1.23;;;13.00;99.90;;;;;;5007661;28;20115;-69
2023/11/02 09:09:47;;;;;;;3.28;1.25;;;13.00;99.90;;;;;;5007689;28;20495;-69
2023/11/02 09:12:12;;;;;;;3.30;1.50;;;13.20;99.90;;;;;;5007092;28;20038;-69
2023/11/02 09:14:38;;;;;;;12.57;3.25;;;13.20;99.90;;;;;;5007372;28;20040;-69
2023/11/02 09:17:04;;;;;;;4.05;1.75;;;13.20;99.90;;;;;;5007359;28;20026;-69
2023/11/02 09:19:30;;;;;;;3.13;1.88;;;13.30;99.90;;;;;;5006280;28;20030;-69
2023/11/02 09:21:56;;;;;;;2.25;1.20;;;13.40;99.90;;;;;;5007444;28;20465;-69
2023/11/02 09:24:22;;;;;;;2.30;1.67;;;13.60;99.90;;;;;;5007032;28;20145;-69
2023/11/02 09:26:48;;;;;;;3.25;1.40;;;13.90;99.90;;;;;;5005660;28;20025;-69
2023/11/02 09:29:14;;;;;;;2.20;1.30;;;14.20;99.90;;;;;;5007422;28;20034;-70
2023/11/02 09:31:42;;;;;;;4.15;1.40;;;14.50;99.20;;;;;;5007388;28;20168;-70
2023/11/02 09:34:10;;;;;;;3.78;1.45;;;14.50;99.10;;;;;;5007185;28;20064;-69
2023/11/02 09:36:37;;;;;;;3.03;1.25;;;14.60;99.20;;;;;;5007206;28;20385;-69
2023/11/02 09:39:07;;;;;;;1.83;1.30;;;14.60;98.70;;;;;;5003923;28;20038;-69
2023/11/02 09:41:35;;;;;;;3.55;1.50;;;14.50;99.00;;;;;;5002150;28;20080;-69
2023/11/02 09:44:03;;;;;;;5.65;1.38;;;14.50;99.30;;;;;;5007004;28;20042;-69
2023/11/02 09:46:29;;;;;;;1.80;1.15;;;14.50;99.00;;;;;;5007298;28;20037;-68
2023/11/02 09:48:55;;;;;;;3.63;1.38;;;14.50;98.90;;;;;;5005819;28;20042;-69
2023/11/02 09:51:23;;;;;;;3.38;1.42;;;14.60;99.20;;;;;;5006613;28;20038;-69
2023/11/02 09:53:49;;;;;;;1.75;1.33;;;15.00;99.60;;;;;;5002765;28;20122;-69
2023/11/02 09:56:16;;;;;;;3.33;1.23;;;15.70;98.60;;;;;;5003446;28;20033;-70
2023/11/02 09:58:43;;;;;;;2.55;1.20;;;15.90;96.70;;;;;;5006877;28;20049;-69
2023/11/02 10:01:11;;;;;;;1.80;1.20;;;15.90;96.80;;;;;;5006687;28;20206;-69
2023/11/02 10:03:37;;;;;;;4.07;1.10;;;15.80;97.10;;;;;;5006022;28;20121;-69
2023/11/02 10:06:05;;;;;;;1.67;1.20;;;15.60;96.90;;;;;;5006571;28;20133;-69
2023/11/02 10:08:30;;;;;;;2.47;1.10;;;15.50;97.50;;;;;;5006248;28;20450;-69
2023/11/02 10:11:11;;;;;;;1.85;1.10;;;15.40;97.30;;;;;;5017014;28;20033;-69
2023/11/02 10:13:37;;;;;;;2.25;1.33;;;15.30;97.60;;;;;;5003451;28;20029;-69
2023/11/02 10:16:03;;;;;;;1.35;1.05;;;15.20;97.50;;;;;;5005588;28;20482;-67
2023/11/02 10:18:30;;;;;;;3.75;1.70;;;15.20;97.40;;;;;;5006062;28;20049;-69
2023/11/02 10:20:56;;;;;;;1.90;1.10;;;15.20;97.30;;;;;;4989924;28;20121;-69
2023/11/02 10:23:22;;;;;;;2.10;1.27;;;15.30;97.40;;;;;;5005024;28;20145;-69
2023/11/02 10:25:47;;;;;;;1.98;1.08;;;15.30;97.20;;;;;;5005348;28;20057;-69
2023/11/02 10:28:14;;;;;;;1.55;0.90;;;15.40;97.30;;;;;;5006233;28;20532;-70
2023/11/02 10:30:39;;;;;;;1.40;1.10;;;15.30;96.90;;;;;;5005709;28;20030;-71
2023/11/02 10:33:06;;;;;;;1.85;1.30;;;15.20;96.90;;;;;;5005809;28;20048;-73
2023/11/02 10:35:32;;;;;;;1.55;1.00;;;15.00;97.90;;;;;;5005822;28;20034;-67
2023/11/02 10:38:01;;;;;;;2.85;1.10;;;14.90;97.90;;;;;;5005354;28;20029;-70
2023/11/02 10:40:42;;;;;;;2.03;0.95;;;14.80;97.60;;;;;;5005872;28;20118;-70
2023/11/02 10:43:16;;;;;;;2.90;0.90;;;14.90;98.00;;;;;;5005415;28;20033;-70
2023/11/02 10:45:52;;;;;;;2.55;1.00;;;14.90;97.50;;;;;;5005752;28;20026;-70
2023/11/02 10:48:20;;;;;;;1.83;1.00;;;15.00;97.20;;;;;;5006071;28;20034;-72
2023/11/02 10:50:47;;;;;;;2.00;1.15;;;14.70;97.40;;;;;;4997133;28;20045;-69
2023/11/02 10:53:44;;;;;;;3.03;0.98;;;14.70;97.80;;;;;;5004971;28;20216;-69
2023/11/02 10:56:20;;;;;;;2.30;1.05;;;14.60;97.70;;;;;;5001695;28;20034;-70
2023/11/02 10:58:46;;;;;;;;;;;14.60;98.00;;;;;;5005647;28;20114;-67
2023/11/02 11:01:13;;;;;;;1.83;0.98;;;14.60;97.40;;;;;;5004632;28;19920;-70
2023/11/02 11:03:39;;;;;;;4.60;1.00;;;14.70;98.00;;;;;;5002940;28;20084;-70
2023/11/02 11:06:05;;;;;;;3.42;1.20;;;14.70;97.60;;;;;;5004847;28;20132;-70
2023/11/02 11:08:33;;;;;;;2.88;1.23;;;14.70;98.00;;;;;;5005499;28;20132;-69
2023/11/02 11:10:59;;;;;;;5.97;1.10;;;14.70;97.90;;;;;;5005220;28;20041;-69
2023/11/02 11:13:27;;;;;;;3.03;1.58;;;14.70;97.60;;;;;;5004500;28;20038;-70
2023/11/02 11:15:54;;;;;;;5.47;1.35;;;14.70;97.80;;;;;;5001140;28;20026;-70
2023/11/02 11:18:21;;;;;;;4.95;1.00;;;14.70;98.00;;;;;;5005239;28;20034;-70
2023/11/02 11:20:47;;;;;;;1.25;1.10;;;14.70;97.60;;;;;;5004727;28;20044;-70
2023/11/02 11:23:14;;;;;;;1.52;1.15;;;14.70;97.70;;;;;;5004636;28;20030;-70
2023/11/02 11:26:01;;;;;;;2.03;0.82;;;14.80;97.70;;;;;;5003833;28;20048;-70
2023/11/02 11:28:32;;;;;;;2.55;1.05;;;14.90;97.70;;;;;;5004879;28;20045;-69
2023/11/02 11:31:05;;;;;;;1.05;0.80;;;15.00;97.40;;;;;;5004986;28;20061;-70
2023/11/02 11:33:50;;;;;;;3.58;0.90;;;14.90;97.00;;;;;;5004485;28;20085;-70
2023/11/02 11:36:22;;;;;;;1.08;0.95;;;14.90;97.20;;;;;;5003419;28;20144;-70
2023/11/02 11:38:50;;;;;;;1.88;0.93;;;14.90;97.00;;;;;;5005083;28;20033;-70
2023/11/02 11:41:44;;;;;;;4.03;1.15;;;14.90;97.20;;;;;;5001478;28;20698;-70
2023/11/02 11:44:22;;;;;;;1.65;0.90;;;15.00;97.50;;;;;;5001858;28;20099;-70
2023/11/02 11:46:53;;;;;;;1.65;0.93;;;15.00;97.30;;;;;;5004755;28;20113;-69
2023/11/02 11:49:36;;;;;;;0.98;0.80;;;15.10;97.30;;;;;;5003127;28;20057;-70
2023/11/02 11:52:03;;;;;;;4.47;1.25;;;15.10;97.10;;;;;;5004142;28;20148;-69
2023/11/02 11:54:30;;;;;;;1.77;0.85;;;15.10;96.70;;;;;;5004242;28;20026;-67
2023/11/02 11:56:55;;;;;;;0.95;0.80;;;15.10;96.80;;;;;;5000678;28;20034;-70
2023/11/02 11:59:55;;;;;;;1.98;1.00;;;15.20;96.80;;;;;;5004263;28;20038;-69
2023/11/02 12:02:35;;;;;;;2.50;0.90;;;15.20;96.70;;;;;;5004572;28;20045;-69
2023/11/02 12:05:01;;;;;;;0.88;0.60;;;15.30;96.60;;;;;;5005835;28;20418;-69
2023/11/02 12:07:27;;;;;;;0.70;0.63;;;15.20;97.00;;;;;;5004214;28;20034;-70
2023/11/02 12:09:53;;;;;;;2.25;0.93;;;15.20;97.10;;;;;;5004374;28;20080;-69
2023/11/02 12:12:19;;;;;;;1.40;1.05;;;15.10;96.70;;;;;;5002206;28;20124;-69
2023/11/02 12:14:46;;;;;;;1.30;0.98;;;15.10;97.40;;;;;;5004021;28;20034;-70
2023/11/02 12:17:12;;;;;;;1.05;0.80;;;15.20;97.00;;;;;;5003975;28;20130;-70
2023/11/02 12:19:42;;;;;;;4.07;1.00;;;15.20;97.20;;;;;;5003724;28;20486;-70
2023/11/02 12:22:10;;;;;;;1.42;0.90;;;15.20;97.30;;;;;;5004081;28;20512;-70
2023/11/02 12:24:38;;;;;;;0.98;0.88;;;15.20;96.90;;;;;;5003745;28;20050;-69
2023/11/02 12:27:11;;;;;;;1.20;0.80;;;15.20;96.90;;;;;;5003657;28;20073;-70
2023/11/02 12:29:37;;;;;;;1.20;0.70;;;15.20;96.80;;;;;;5003071;28;20038;-70
2023/11/02 12:32:03;;;;;;;0.98;0.80;;;15.10;96.70;;;;;;5004239;28;20041;-70
2023/11/02 12:34:29;;;;;;;1.77;0.60;;;15.10;97.10;;;;;;5003727;28;20041;-70
2023/11/02 12:36:56;;;;;;;4.68;0.80;;;15.10;96.60;;;;;;5004061;28;20034;-70
2023/11/02 12:39:21;;;;;;;0.52;0.50;;;15.00;97.00;;;;;;5003932;28;20030;-70
2023/11/02 12:41:47;;;;;;;2.55;0.90;;;15.10;97.10;;;;;;5003347;28;20124;-69
2023/11/02 12:44:17;;;;;;;0.70;0.70;;;15.20;97.00;;;;;;5003944;28;20052;-70
2023/11/02 12:46:51;;;;;;;2.22;0.82;;;15.30;96.60;;;;;;5004131;28;20026;-69
2023/11/02 12:49:20;;;;;;;1.73;0.95;;;15.30;97.00;;;;;;5003999;28;20112;-69
2023/11/02 12:52:02;;;;;;;1.38;1.00;;;15.30;96.60;;;;;;5004151;28;20046;-69
2023/11/02 12:54:31;;;;;;;0.82;0.82;;;15.30;96.90;;;;;;5003378;28;20042;-70
2023/11/02 12:57:09;;;;;;;3.38;0.88;;;15.30;96.60;;;;;;5004126;28;20439;-70
2023/11/02 12:59:42;;;;;;;1.60;0.80;;;15.30;96.90;;;;;;4996685;28;20035;-70
2023/11/02 13:02:11;;;;;;;3.28;0.80;;;15.30;96.30;;;;;;5006844;28;20536;-69